sensor_id;sensor_type;location;lat;lon;timestamp;P1;durP1;ratioP1;P2;durP2;ratioP2
289;SDS011;13193;48.874;9.086;2023-01-25T00:02:03;52.60;;;16.70;;
289;SDS011;13193;48.874;9.086;2023-01-25T00:04:29;58.83;;;16.93;;
289;SDS011;13193;48.874;9.086;2023-01-25T00:06:55;52.07;;;19.17;;
289;SDS011;13193;48.874;9.086;2023-01-25T00:09:21;44.03;;;17.93;;
289;SDS011;13193;48.874;9.086;2023-01-25T00:11:47;42.20;;;13.23;;
289;SDS011;13193;48.874;9.086;2023-01-25T00:14:13;40.03;;;14.70;;
289;SDS011;13193;48.874;9.086;2023-01-25T00:16:40;39.00;;;14.87;;
289;SDS011;13193;48.874;9.086;2023-01-25T00:19:06;37.63;;;14.03;;
289;SDS011;13193;48.874;9.086;2023-01-25T00:21:33;40.67;;;16.30;;
289;SDS011;13193;48.874;9.086;2023-01-25T00:23:59;40.47;;;13.70;;
289;SDS011;13193;48.874;9.086;2023-01-25T00:26:25;34.17;;;13.57;;
289;SDS011;13193;48.874;9.086;2023-01-25T00:28:51;31.13;;;13.90;;
289;SDS011;13193;48.874;9.086;2023-01-25T00:34:00;31.57;;;12.00;;
289;SDS011;13193;48.874;9.086;2023-01-25T00:36:38;44.03;;;13.53;;
289;SDS011;13193;48.874;9.086;2023-01-25T00:39:05;42.23;;;13.10;;
289;SDS011;13193;48.874;9.086;2023-01-25T00:41:34;21.80;;;10.27;;
289;SDS011;13193;48.874;9.086;2023-01-25T00:44:00;38.00;;;16.50;;
289;SDS011;13193;48.874;9.086;2023-01-25T00:46:25;25.00;;;10.20;;
289;SDS011;13193;48.874;9.086;2023-01-25T00:48:52;31.63;;;13.30;;
289;SDS011;13193;48.874;9.086;2023-01-25T00:51:18;36.20;;;15.23;;
289;SDS011;13193;48.874;9.086;2023-01-25T00:53:44;34.30;;;14.33;;
289;SDS011;13193;48.874;9.086;2023-01-25T00:56:10;37.47;;;14.70;;
289;SDS011;13193;48.874;9.086;2023-01-25T00:58:35;40.40;;;14.20;;
289;SDS011;13193;48.874;9.086;2023-01-25T01:01:01;41.30;;;15.00;;
289;SDS011;13193;48.874;9.086;2023-01-25T01:03:27;36.47;;;14.93;;
289;SDS011;13193;48.874;9.086;2023-01-25T01:06:03;40.20;;;13.00;;
289;SDS011;13193;48.874;9.086;2023-01-25T01:08:34;52.57;;;16.90;;
289;SDS011;13193;48.874;9.086;2023-01-25T01:11:04;31.80;;;14.37;;
289;SDS011;13193;48.874;9.086;2023-01-25T01:13:31;38.83;;;15.60;;
289;SDS011;13193;48.874;9.086;2023-01-25T01:15:59;32.43;;;12.63;;
289;SDS011;13193;48.874;9.086;2023-01-25T01:18:35;38.37;;;14.23;;
289;SDS011;13193;48.874;9.086;2023-01-25T01:21:02;50.70;;;15.90;;
289;SDS011;13193;48.874;9.086;2023-01-25T01:23:28;38.13;;;14.50;;
289;SDS011;13193;48.874;9.086;2023-01-25T01:25:54;39.20;;;15.77;;
289;SDS011;13193;48.874;9.086;2023-01-25T01:28:20;45.37;;;15.10;;
289;SDS011;13193;48.874;9.086;2023-01-25T01:30:45;47.50;;;17.10;;
289;SDS011;13193;48.874;9.086;2023-01-25T01:33:11;44.37;;;16.00;;
289;SDS011;13193;48.874;9.086;2023-01-25T01:35:36;37.10;;;14.40;;
289;SDS011;13193;48.874;9.086;2023-01-25T01:38:02;43.43;;;16.50;;
289;SDS011;13193;48.874;9.086;2023-01-25T01:40:27;43.90;;;17.20;;
289;SDS011;13193;48.874;9.086;2023-01-25T01:43:03;37.13;;;16.60;;
289;SDS011;13193;48.874;9.086;2023-01-25T01:51:14;49.63;;;14.57;;
289;SDS011;13193;48.874;9.086;2023-01-25T01:53:41;36.30;;;14.80;;
289;SDS011;13193;48.874;9.086;2023-01-25T01:56:10;43.57;;;17.60;;
289;SDS011;13193;48.874;9.086;2023-01-25T01:58:40;44.60;;;17.93;;
289;SDS011;13193;48.874;9.086;2023-01-25T02:01:08;38.30;;;15.47;;
289;SDS011;13193;48.874;9.086;2023-01-25T02:03:34;35.83;;;13.50;;
289;SDS011;13193;48.874;9.086;2023-01-25T02:06:01;53.77;;;17.73;;
289;SDS011;13193;48.874;9.086;2023-01-25T02:08:37;47.47;;;16.43;;
289;SDS011;13193;48.874;9.086;2023-01-25T02:11:04;37.60;;;15.30;;
289;SDS011;13193;48.874;9.086;2023-01-25T02:13:31;32.77;;;12.83;;
289;SDS011;13193;48.874;9.086;2023-01-25T02:15:59;40.50;;;15.53;;
289;SDS011;13193;48.874;9.086;2023-01-25T02:18:24;12.10;;;4.80;;
289;SDS011;13193;48.874;9.086;2023-01-25T02:20:51;39.07;;;12.93;;
289;SDS011;13193;48.874;9.086;2023-01-25T02:26:03;51.00;;;18.10;;
289;SDS011;13193;48.874;9.086;2023-01-25T02:28:44;36.90;;;15.10;;
289;SDS011;13193;48.874;9.086;2023-01-25T02:31:14;48.17;;;17.30;;
289;SDS011;13193;48.874;9.086;2023-01-25T02:33:40;40.07;;;15.70;;
289;SDS011;13193;48.874;9.086;2023-01-25T02:38:36;41.80;;;16.57;;
289;SDS011;13193;48.874;9.086;2023-01-25T02:43:51;17.47;;;7.37;;
289;SDS011;13193;48.874;9.086;2023-01-25T02:46:20;42.90;;;15.00;;
289;SDS011;13193;48.874;9.086;2023-01-25T02:48:51;38.33;;;15.40;;
289;SDS011;13193;48.874;9.086;2023-01-25T02:51:18;45.50;;;18.23;;
289;SDS011;13193;48.874;9.086;2023-01-25T02:53:45;32.53;;;10.10;;
289;SDS011;13193;48.874;9.086;2023-01-25T02:56:11;46.87;;;16.23;;
289;SDS011;13193;48.874;9.086;2023-01-25T02:58:37;46.60;;;16.23;;
289;SDS011;13193;48.874;9.086;2023-01-25T03:01:02;32.63;;;12.67;;
289;SDS011;13193;48.874;9.086;2023-01-25T03:03:28;34.90;;;13.03;;
289;SDS011;13193;48.874;9.086;2023-01-25T03:05:54;47.90;;;17.07;;
289;SDS011;13193;48.874;9.086;2023-01-25T03:08:19;38.57;;;15.30;;
289;SDS011;13193;48.874;9.086;2023-01-25T03:10:45;42.00;;;17.77;;
289;SDS011;13193;48.874;9.086;2023-01-25T03:13:10;42.50;;;16.50;;
289;SDS011;13193;48.874;9.086;2023-01-25T03:15:36;39.97;;;15.13;;
289;SDS011;13193;48.874;9.086;2023-01-25T03:18:02;42.23;;;14.97;;
289;SDS011;13193;48.874;9.086;2023-01-25T03:20:27;46.23;;;17.70;;
289;SDS011;13193;48.874;9.086;2023-01-25T03:22:53;38.40;;;12.77;;
289;SDS011;13193;48.874;9.086;2023-01-25T03:25:19;43.90;;;17.27;;
289;SDS011;13193;48.874;9.086;2023-01-25T03:27:45;29.77;;;10.40;;
289;SDS011;13193;48.874;9.086;2023-01-25T03:30:10;42.10;;;14.80;;
289;SDS011;13193;48.874;9.086;2023-01-25T03:32:36;55.30;;;16.63;;
289;SDS011;13193;48.874;9.086;2023-01-25T03:35:02;45.07;;;17.67;;
289;SDS011;13193;48.874;9.086;2023-01-25T03:37:28;34.67;;;11.57;;
289;SDS011;13193;48.874;9.086;2023-01-25T03:39:55;37.17;;;14.63;;
289;SDS011;13193;48.874;9.086;2023-01-25T03:42:22;35.27;;;13.77;;
289;SDS011;13193;48.874;9.086;2023-01-25T03:44:48;45.80;;;15.90;;
289;SDS011;13193;48.874;9.086;2023-01-25T03:47:14;36.87;;;13.97;;
289;SDS011;13193;48.874;9.086;2023-01-25T03:49:40;30.33;;;11.27;;
289;SDS011;13193;48.874;9.086;2023-01-25T03:52:06;37.97;;;14.80;;
289;SDS011;13193;48.874;9.086;2023-01-25T03:54:31;39.10;;;16.47;;
289;SDS011;13193;48.874;9.086;2023-01-25T03:56:57;30.67;;;13.33;;
289;SDS011;13193;48.874;9.086;2023-01-25T03:59:23;40.63;;;14.97;;
289;SDS011;13193;48.874;9.086;2023-01-25T04:01:48;45.40;;;15.10;;
289;SDS011;13193;48.874;9.086;2023-01-25T04:04:14;34.87;;;14.60;;
289;SDS011;13193;48.874;9.086;2023-01-25T04:06:39;35.80;;;15.27;;
289;SDS011;13193;48.874;9.086;2023-01-25T04:09:05;38.77;;;13.37;;
289;SDS011;13193;48.874;9.086;2023-01-25T04:11:31;38.80;;;14.93;;
289;SDS011;13193;48.874;9.086;2023-01-25T04:13:57;41.40;;;15.20;;
289;SDS011;13193;48.874;9.086;2023-01-25T04:16:22;41.30;;;15.50;;
289;SDS011;13193;48.874;9.086;2023-01-25T04:18:48;40.23;;;14.57;;
289;SDS011;13193;48.874;9.086;2023-01-25T04:21:13;30.87;;;12.67;;
289;SDS011;13193;48.874;9.086;2023-01-25T04:23:39;38.47;;;14.63;;
289;SDS011;13193;48.874;9.086;2023-01-25T04:26:05;38.53;;;13.67;;
289;SDS011;13193;48.874;9.086;2023-01-25T04:28:33;36.90;;;12.30;;
289;SDS011;13193;48.874;9.086;2023-01-25T04:30:59;35.50;;;12.53;;
289;SDS011;13193;48.874;9.086;2023-01-25T04:33:27;35.30;;;11.90;;
289;SDS011;13193;48.874;9.086;2023-01-25T04:35:53;47.50;;;15.20;;
289;SDS011;13193;48.874;9.086;2023-01-25T04:38:19;33.93;;;13.70;;
289;SDS011;13193;48.874;9.086;2023-01-25T04:40:45;26.60;;;11.17;;
289;SDS011;13193;48.874;9.086;2023-01-25T04:43:12;40.57;;;15.27;;
289;SDS011;13193;48.874;9.086;2023-01-25T04:45:38;27.60;;;10.13;;
289;SDS011;13193;48.874;9.086;2023-01-25T04:48:05;41.33;;;15.10;;
289;SDS011;13193;48.874;9.086;2023-01-25T04:50:35;31.97;;;11.63;;
289;SDS011;13193;48.874;9.086;2023-01-25T04:53:05;35.90;;;14.73;;
289;SDS011;13193;48.874;9.086;2023-01-25T04:55:32;27.40;;;12.10;;
289;SDS011;13193;48.874;9.086;2023-01-25T04:57:58;32.33;;;13.03;;
289;SDS011;13193;48.874;9.086;2023-01-25T05:00:24;28.10;;;12.17;;
289;SDS011;13193;48.874;9.086;2023-01-25T05:02:51;35.10;;;13.23;;
289;SDS011;13193;48.874;9.086;2023-01-25T05:05:18;31.53;;;14.83;;
289;SDS011;13193;48.874;9.086;2023-01-25T05:07:43;34.70;;;10.53;;
289;SDS011;13193;48.874;9.086;2023-01-25T05:10:09;32.00;;;11.20;;
289;SDS011;13193;48.874;9.086;2023-01-25T05:12:35;30.27;;;10.20;;
289;SDS011;13193;48.874;9.086;2023-01-25T05:15:01;31.33;;;12.83;;
289;SDS011;13193;48.874;9.086;2023-01-25T05:17:27;22.10;;;10.00;;
289;SDS011;13193;48.874;9.086;2023-01-25T05:19:53;31.80;;;11.90;;
289;SDS011;13193;48.874;9.086;2023-01-25T05:22:19;25.10;;;11.50;;
289;SDS011;13193;48.874;9.086;2023-01-25T05:24:46;30.73;;;12.57;;
289;SDS011;13193;48.874;9.086;2023-01-25T05:27:13;33.47;;;10.03;;
289;SDS011;13193;48.874;9.086;2023-01-25T05:29:41;23.17;;;10.27;;
289;SDS011;13193;48.874;9.086;2023-01-25T05:32:09;23.47;;;8.37;;
289;SDS011;13193;48.874;9.086;2023-01-25T05:34:36;29.93;;;11.53;;
289;SDS011;13193;48.874;9.086;2023-01-25T05:37:04;24.73;;;10.57;;
289;SDS011;13193;48.874;9.086;2023-01-25T05:39:31;30.27;;;11.20;;
289;SDS011;13193;48.874;9.086;2023-01-25T05:41:56;29.93;;;10.77;;
289;SDS011;13193;48.874;9.086;2023-01-25T05:44:23;23.50;;;7.63;;
289;SDS011;13193;48.874;9.086;2023-01-25T05:46:49;19.33;;;8.33;;
289;SDS011;13193;48.874;9.086;2023-01-25T05:49:15;23.50;;;9.93;;
289;SDS011;13193;48.874;9.086;2023-01-25T05:51:41;21.00;;;9.10;;
289;SDS011;13193;48.874;9.086;2023-01-25T05:54:08;21.57;;;8.77;;
289;SDS011;13193;48.874;9.086;2023-01-25T05:56:37;27.80;;;11.70;;
289;SDS011;13193;48.874;9.086;2023-01-25T05:59:02;18.50;;;9.70;;
289;SDS011;13193;48.874;9.086;2023-01-25T06:01:28;18.13;;;9.47;;
289;SDS011;13193;48.874;9.086;2023-01-25T06:03:54;19.03;;;9.83;;
289;SDS011;13193;48.874;9.086;2023-01-25T06:06:20;23.90;;;10.67;;
289;SDS011;13193;48.874;9.086;2023-01-25T06:08:46;20.83;;;8.70;;
289;SDS011;13193;48.874;9.086;2023-01-25T06:11:14;23.97;;;8.93;;
289;SDS011;13193;48.874;9.086;2023-01-25T06:13:43;20.00;;;9.63;;
289;SDS011;13193;48.874;9.086;2023-01-25T06:16:09;28.37;;;9.37;;
289;SDS011;13193;48.874;9.086;2023-01-25T06:18:35;18.17;;;8.90;;
289;SDS011;13193;48.874;9.086;2023-01-25T06:21:04;25.97;;;8.80;;
289;SDS011;13193;48.874;9.086;2023-01-25T06:23:29;18.73;;;9.37;;
289;SDS011;13193;48.874;9.086;2023-01-25T06:25:59;20.00;;;9.03;;
289;SDS011;13193;48.874;9.086;2023-01-25T06:28:33;22.30;;;8.20;;
289;SDS011;13193;48.874;9.086;2023-01-25T06:31:05;26.50;;;11.37;;
289;SDS011;13193;48.874;9.086;2023-01-25T06:33:33;19.70;;;8.77;;
289;SDS011;13193;48.874;9.086;2023-01-25T06:36:03;28.27;;;7.77;;
289;SDS011;13193;48.874;9.086;2023-01-25T06:38:30;19.30;;;8.43;;
289;SDS011;13193;48.874;9.086;2023-01-25T06:41:03;19.90;;;9.13;;
289;SDS011;13193;48.874;9.086;2023-01-25T06:43:30;13.33;;;7.60;;
289;SDS011;13193;48.874;9.086;2023-01-25T06:45:57;34.33;;;11.03;;
289;SDS011;13193;48.874;9.086;2023-01-25T06:48:28;21.87;;;9.10;;
289;SDS011;13193;48.874;9.086;2023-01-25T06:50:59;20.70;;;8.53;;
289;SDS011;13193;48.874;9.086;2023-01-25T06:53:33;25.83;;;9.70;;
289;SDS011;13193;48.874;9.086;2023-01-25T06:58:47;18.03;;;7.80;;
289;SDS011;13193;48.874;9.086;2023-01-25T07:01:15;22.33;;;9.13;;
289;SDS011;13193;48.874;9.086;2023-01-25T07:03:46;22.07;;;8.67;;
289;SDS011;13193;48.874;9.086;2023-01-25T07:06:16;18.07;;;8.13;;
289;SDS011;13193;48.874;9.086;2023-01-25T07:08:44;18.43;;;9.10;;
289;SDS011;13193;48.874;9.086;2023-01-25T07:11:11;25.63;;;9.13;;
289;SDS011;13193;48.874;9.086;2023-01-25T07:13:38;17.47;;;8.40;;
289;SDS011;13193;48.874;9.086;2023-01-25T07:16:06;21.83;;;8.10;;
289;SDS011;13193;48.874;9.086;2023-01-25T07:18:33;17.80;;;8.03;;
289;SDS011;13193;48.874;9.086;2023-01-25T07:21:06;20.33;;;7.90;;
289;SDS011;13193;48.874;9.086;2023-01-25T07:23:40;25.60;;;7.07;;
289;SDS011;13193;48.874;9.086;2023-01-25T07:26:09;19.37;;;8.20;;
289;SDS011;13193;48.874;9.086;2023-01-25T07:28:51;20.23;;;8.50;;
289;SDS011;13193;48.874;9.086;2023-01-25T07:31:19;21.87;;;8.67;;
289;SDS011;13193;48.874;9.086;2023-01-25T07:33:47;22.63;;;9.97;;
289;SDS011;13193;48.874;9.086;2023-01-25T07:36:21;21.03;;;8.00;;
289;SDS011;13193;48.874;9.086;2023-01-25T07:38:52;27.07;;;9.20;;
289;SDS011;13193;48.874;9.086;2023-01-25T07:41:19;19.20;;;7.77;;
289;SDS011;13193;48.874;9.086;2023-01-25T07:43:44;13.47;;;7.50;;
289;SDS011;13193;48.874;9.086;2023-01-25T07:46:16;20.70;;;8.43;;
289;SDS011;13193;48.874;9.086;2023-01-25T07:48:46;20.70;;;8.17;;
289;SDS011;13193;48.874;9.086;2023-01-25T07:51:13;24.80;;;7.67;;
289;SDS011;13193;48.874;9.086;2023-01-25T07:54:01;16.23;;;7.07;;
289;SDS011;13193;48.874;9.086;2023-01-25T07:56:32;18.23;;;8.40;;
289;SDS011;13193;48.874;9.086;2023-01-25T07:58:59;15.87;;;6.93;;
289;SDS011;13193;48.874;9.086;2023-01-25T08:01:28;13.00;;;6.33;;
289;SDS011;13193;48.874;9.086;2023-01-25T08:03:58;16.10;;;7.90;;
289;SDS011;13193;48.874;9.086;2023-01-25T08:06:29;15.57;;;6.70;;
289;SDS011;13193;48.874;9.086;2023-01-25T08:08:59;18.33;;;7.57;;
289;SDS011;13193;48.874;9.086;2023-01-25T08:11:29;19.10;;;7.20;;
289;SDS011;13193;48.874;9.086;2023-01-25T08:13:57;22.13;;;7.80;;
289;SDS011;13193;48.874;9.086;2023-01-25T08:16:26;16.97;;;6.83;;
289;SDS011;13193;48.874;9.086;2023-01-25T08:18:53;20.00;;;7.47;;
289;SDS011;13193;48.874;9.086;2023-01-25T08:21:21;19.23;;;7.20;;
289;SDS011;13193;48.874;9.086;2023-01-25T08:24:00;13.13;;;5.60;;
289;SDS011;13193;48.874;9.086;2023-01-25T08:26:28;21.47;;;8.00;;
289;SDS011;13193;48.874;9.086;2023-01-25T08:28:53;16.50;;;6.37;;
289;SDS011;13193;48.874;9.086;2023-01-25T08:31:21;22.77;;;7.50;;
289;SDS011;13193;48.874;9.086;2023-01-25T08:33:48;21.53;;;7.80;;
289;SDS011;13193;48.874;9.086;2023-01-25T08:36:14;16.73;;;6.50;;
289;SDS011;13193;48.874;9.086;2023-01-25T08:38:42;12.67;;;6.23;;
289;SDS011;13193;48.874;9.086;2023-01-25T08:41:12;12.50;;;5.03;;
289;SDS011;13193;48.874;9.086;2023-01-25T08:43:40;22.73;;;8.27;;
289;SDS011;13193;48.874;9.086;2023-01-25T08:46:06;6.20;;;3.33;;
289;SDS011;13193;48.874;9.086;2023-01-25T08:48:32;15.73;;;6.00;;
289;SDS011;13193;48.874;9.086;2023-01-25T08:50:58;19.50;;;7.40;;
289;SDS011;13193;48.874;9.086;2023-01-25T08:53:26;17.20;;;8.53;;
289;SDS011;13193;48.874;9.086;2023-01-25T08:55:52;18.90;;;7.43;;
289;SDS011;13193;48.874;9.086;2023-01-25T08:58:18;14.27;;;5.50;;
289;SDS011;13193;48.874;9.086;2023-01-25T09:00:46;22.00;;;10.27;;
289;SDS011;13193;48.874;9.086;2023-01-25T09:03:12;14.10;;;6.07;;
289;SDS011;13193;48.874;9.086;2023-01-25T09:05:38;15.20;;;7.27;;
289;SDS011;13193;48.874;9.086;2023-01-25T09:08:05;24.13;;;8.40;;
289;SDS011;13193;48.874;9.086;2023-01-25T09:10:33;6.57;;;3.97;;
289;SDS011;13193;48.874;9.086;2023-01-25T09:12:58;10.97;;;5.93;;
289;SDS011;13193;48.874;9.086;2023-01-25T09:15:25;20.10;;;7.03;;
289;SDS011;13193;48.874;9.086;2023-01-25T09:17:51;19.23;;;6.53;;
289;SDS011;13193;48.874;9.086;2023-01-25T09:20:20;16.37;;;7.13;;
289;SDS011;13193;48.874;9.086;2023-01-25T09:22:46;19.17;;;7.80;;
289;SDS011;13193;48.874;9.086;2023-01-25T09:25:12;22.67;;;8.63;;
289;SDS011;13193;48.874;9.086;2023-01-25T09:27:38;15.37;;;7.80;;
289;SDS011;13193;48.874;9.086;2023-01-25T09:30:04;7.57;;;4.10;;
289;SDS011;13193;48.874;9.086;2023-01-25T09:32:31;14.33;;;7.03;;
289;SDS011;13193;48.874;9.086;2023-01-25T09:34:57;15.73;;;7.07;;
289;SDS011;13193;48.874;9.086;2023-01-25T09:37:23;16.03;;;7.53;;
289;SDS011;13193;48.874;9.086;2023-01-25T09:39:48;17.43;;;7.10;;
289;SDS011;13193;48.874;9.086;2023-01-25T09:45:12;20.27;;;8.10;;
289;SDS011;13193;48.874;9.086;2023-01-25T09:50:17;14.33;;;5.83;;
289;SDS011;13193;48.874;9.086;2023-01-25T09:55:59;16.60;;;6.07;;
289;SDS011;13193;48.874;9.086;2023-01-25T09:59:03;15.03;;;6.47;;
289;SDS011;13193;48.874;9.086;2023-01-25T10:01:47;11.63;;;4.50;;
289;SDS011;13193;48.874;9.086;2023-01-25T10:04:20;14.57;;;5.23;;
289;SDS011;13193;48.874;9.086;2023-01-25T10:06:49;12.40;;;5.03;;
289;SDS011;13193;48.874;9.086;2023-01-25T10:12:08;18.80;;;6.67;;
289;SDS011;13193;48.874;9.086;2023-01-25T10:14:45;21.67;;;8.00;;
289;SDS011;13193;48.874;9.086;2023-01-25T10:17:33;20.10;;;7.63;;
289;SDS011;13193;48.874;9.086;2023-01-25T10:22:50;12.77;;;5.50;;
289;SDS011;13193;48.874;9.086;2023-01-25T10:25:39;16.70;;;5.97;;
289;SDS011;13193;48.874;9.086;2023-01-25T10:31:17;19.80;;;8.20;;
289;SDS011;13193;48.874;9.086;2023-01-25T10:33:45;20.93;;;8.30;;
289;SDS011;13193;48.874;9.086;2023-01-25T10:36:15;30.50;;;11.67;;
289;SDS011;13193;48.874;9.086;2023-01-25T10:38:46;19.23;;;8.70;;
289;SDS011;13193;48.874;9.086;2023-01-25T10:41:35;18.50;;;7.20;;
289;SDS011;13193;48.874;9.086;2023-01-25T10:44:05;18.10;;;7.77;;
289;SDS011;13193;48.874;9.086;2023-01-25T10:46:54;21.77;;;9.00;;
289;SDS011;13193;48.874;9.086;2023-01-25T10:52:28;19.50;;;7.30;;
289;SDS011;13193;48.874;9.086;2023-01-25T10:57:47;18.53;;;8.53;;
289;SDS011;13193;48.874;9.086;2023-01-25T11:02:51;21.00;;;8.53;;
289;SDS011;13193;48.874;9.086;2023-01-25T11:05:25;15.60;;;6.80;;
289;SDS011;13193;48.874;9.086;2023-01-25T11:07:57;11.23;;;3.80;;
289;SDS011;13193;48.874;9.086;2023-01-25T11:10:38;16.67;;;6.80;;
289;SDS011;13193;48.874;9.086;2023-01-25T11:13:48;21.70;;;7.60;;
289;SDS011;13193;48.874;9.086;2023-01-25T11:18:29;19.73;;;7.37;;
289;SDS011;13193;48.874;9.086;2023-01-25T11:23:35;21.07;;;7.80;;
289;SDS011;13193;48.874;9.086;2023-01-25T11:26:19;12.80;;;4.57;;
289;SDS011;13193;48.874;9.086;2023-01-25T11:28:45;19.33;;;9.30;;
289;SDS011;13193;48.874;9.086;2023-01-25T11:31:20;16.57;;;7.97;;
289;SDS011;13193;48.874;9.086;2023-01-25T11:33:46;16.23;;;6.90;;
289;SDS011;13193;48.874;9.086;2023-01-25T11:38:53;19.43;;;7.60;;
289;SDS011;13193;48.874;9.086;2023-01-25T11:47:14;18.07;;;7.73;;
289;SDS011;13193;48.874;9.086;2023-01-25T11:55:25;19.13;;;7.47;;
289;SDS011;13193;48.874;9.086;2023-01-25T12:03:44;16.03;;;7.10;;
289;SDS011;13193;48.874;9.086;2023-01-25T12:06:45;22.67;;;8.20;;
289;SDS011;13193;48.874;9.086;2023-01-25T12:20:41;18.00;;;6.93;;
289;SDS011;13193;48.874;9.086;2023-01-25T12:23:45;18.93;;;8.10;;
289;SDS011;13193;48.874;9.086;2023-01-25T12:26:23;21.47;;;7.97;;
289;SDS011;13193;48.874;9.086;2023-01-25T12:33:59;19.20;;;7.20;;
289;SDS011;13193;48.874;9.086;2023-01-25T12:36:33;23.67;;;8.60;;
289;SDS011;13193;48.874;9.086;2023-01-25T12:42:11;20.20;;;8.47;;
289;SDS011;13193;48.874;9.086;2023-01-25T12:44:41;22.70;;;10.00;;
289;SDS011;13193;48.874;9.086;2023-01-25T12:47:12;17.63;;;7.37;;
289;SDS011;13193;48.874;9.086;2023-01-25T12:49:52;12.60;;;4.17;;
289;SDS011;13193;48.874;9.086;2023-01-25T12:52:39;23.80;;;8.97;;
289;SDS011;13193;48.874;9.086;2023-01-25T12:55:12;22.23;;;8.40;;
289;SDS011;13193;48.874;9.086;2023-01-25T13:00:25;22.03;;;10.37;;
289;SDS011;13193;48.874;9.086;2023-01-25T13:05:44;22.87;;;9.80;;
289;SDS011;13193;48.874;9.086;2023-01-25T13:08:34;21.83;;;8.50;;
289;SDS011;13193;48.874;9.086;2023-01-25T13:11:12;25.57;;;9.70;;
289;SDS011;13193;48.874;9.086;2023-01-25T13:13:39;33.43;;;10.97;;
289;SDS011;13193;48.874;9.086;2023-01-25T13:16:21;25.80;;;13.27;;
289;SDS011;13193;48.874;9.086;2023-01-25T13:18:47;27.70;;;11.33;;
289;SDS011;13193;48.874;9.086;2023-01-25T13:24:20;19.50;;;8.73;;
289;SDS011;13193;48.874;9.086;2023-01-25T13:31:59;27.90;;;12.23;;
289;SDS011;13193;48.874;9.086;2023-01-25T13:39:50;20.63;;;9.27;;
289;SDS011;13193;48.874;9.086;2023-01-25T13:42:21;24.07;;;9.00;;
289;SDS011;13193;48.874;9.086;2023-01-25T13:44:50;22.27;;;10.17;;
289;SDS011;13193;48.874;9.086;2023-01-25T13:47:22;30.97;;;11.00;;
289;SDS011;13193;48.874;9.086;2023-01-25T13:50:07;30.03;;;11.67;;
289;SDS011;13193;48.874;9.086;2023-01-25T13:52:58;30.60;;;10.87;;
289;SDS011;13193;48.874;9.086;2023-01-25T13:55:26;30.33;;;12.63;;
289;SDS011;13193;48.874;9.086;2023-01-25T13:58:06;32.47;;;10.63;;
289;SDS011;13193;48.874;9.086;2023-01-25T14:03:33;33.03;;;11.60;;
289;SDS011;13193;48.874;9.086;2023-01-25T14:06:01;34.30;;;12.90;;
289;SDS011;13193;48.874;9.086;2023-01-25T14:08:28;24.70;;;10.17;;
289;SDS011;13193;48.874;9.086;2023-01-25T14:10:54;39.90;;;14.23;;
289;SDS011;13193;48.874;9.086;2023-01-25T14:13:21;32.13;;;11.97;;
289;SDS011;13193;48.874;9.086;2023-01-25T14:15:58;32.37;;;12.07;;
289;SDS011;13193;48.874;9.086;2023-01-25T14:18:26;29.53;;;12.57;;
289;SDS011;13193;48.874;9.086;2023-01-25T14:21:07;31.27;;;11.97;;
289;SDS011;13193;48.874;9.086;2023-01-25T14:23:45;28.83;;;10.33;;
289;SDS011;13193;48.874;9.086;2023-01-25T14:26:16;26.50;;;12.10;;
289;SDS011;13193;48.874;9.086;2023-01-25T14:28:48;27.88;;;11.52;;
289;SDS011;13193;48.874;9.086;2023-01-25T14:31:20;21.70;;;9.13;;
289;SDS011;13193;48.874;9.086;2023-01-25T14:33:51;25.87;;;10.73;;
289;SDS011;13193;48.874;9.086;2023-01-25T14:36:27;30.30;;;11.50;;
289;SDS011;13193;48.874;9.086;2023-01-25T14:38:54;27.03;;;11.60;;
289;SDS011;13193;48.874;9.086;2023-01-25T14:41:22;20.30;;;10.27;;
289;SDS011;13193;48.874;9.086;2023-01-25T14:43:58;29.30;;;10.37;;
289;SDS011;13193;48.874;9.086;2023-01-25T14:46:33;30.30;;;12.50;;
289;SDS011;13193;48.874;9.086;2023-01-25T14:49:19;24.20;;;9.63;;
289;SDS011;13193;48.874;9.086;2023-01-25T14:52:10;28.90;;;12.00;;
289;SDS011;13193;48.874;9.086;2023-01-25T15:00:01;36.57;;;13.77;;
289;SDS011;13193;48.874;9.086;2023-01-25T15:02:46;28.43;;;12.20;;
289;SDS011;13193;48.874;9.086;2023-01-25T15:05:25;28.10;;;10.70;;
289;SDS011;13193;48.874;9.086;2023-01-25T15:08:25;32.80;;;10.87;;
289;SDS011;13193;48.874;9.086;2023-01-25T15:11:30;30.00;;;11.20;;
289;SDS011;13193;48.874;9.086;2023-01-25T15:14:14;36.87;;;10.93;;
289;SDS011;13193;48.874;9.086;2023-01-25T15:16:42;39.30;;;12.07;;
289;SDS011;13193;48.874;9.086;2023-01-25T15:21:54;32.47;;;12.27;;
289;SDS011;13193;48.874;9.086;2023-01-25T15:24:20;32.20;;;10.87;;
289;SDS011;13193;48.874;9.086;2023-01-25T15:26:48;31.90;;;12.57;;
289;SDS011;13193;48.874;9.086;2023-01-25T15:29:16;35.97;;;11.37;;
289;SDS011;13193;48.874;9.086;2023-01-25T15:31:47;31.13;;;11.90;;
289;SDS011;13193;48.874;9.086;2023-01-25T15:34:15;35.97;;;12.20;;
289;SDS011;13193;48.874;9.086;2023-01-25T15:36:43;37.40;;;13.87;;
289;SDS011;13193;48.874;9.086;2023-01-25T15:39:13;41.97;;;12.73;;
289;SDS011;13193;48.874;9.086;2023-01-25T15:41:41;57.30;;;13.90;;
289;SDS011;13193;48.874;9.086;2023-01-25T15:44:07;34.20;;;13.80;;
289;SDS011;13193;48.874;9.086;2023-01-25T15:46:33;36.03;;;13.87;;
289;SDS011;13193;48.874;9.086;2023-01-25T15:49:00;34.03;;;12.90;;
289;SDS011;13193;48.874;9.086;2023-01-25T15:51:28;32.20;;;13.50;;
289;SDS011;13193;48.874;9.086;2023-01-25T15:53:56;34.67;;;14.50;;
289;SDS011;13193;48.874;9.086;2023-01-25T15:56:31;37.57;;;15.20;;
289;SDS011;13193;48.874;9.086;2023-01-25T15:59:01;45.53;;;18.07;;
289;SDS011;13193;48.874;9.086;2023-01-25T16:01:37;49.90;;;17.40;;
289;SDS011;13193;48.874;9.086;2023-01-25T16:04:02;49.93;;;19.20;;
289;SDS011;13193;48.874;9.086;2023-01-25T16:06:35;51.37;;;18.10;;
289;SDS011;13193;48.874;9.086;2023-01-25T16:11:58;37.80;;;16.47;;
289;SDS011;13193;48.874;9.086;2023-01-25T16:14:26;43.00;;;15.30;;
289;SDS011;13193;48.874;9.086;2023-01-25T16:16:54;38.03;;;16.97;;
289;SDS011;13193;48.874;9.086;2023-01-25T16:19:22;42.00;;;15.10;;
289;SDS011;13193;48.874;9.086;2023-01-25T16:21:48;31.60;;;11.43;;
289;SDS011;13193;48.874;9.086;2023-01-25T16:24:14;37.53;;;13.60;;
289;SDS011;13193;48.874;9.086;2023-01-25T16:26:53;29.13;;;11.80;;
289;SDS011;13193;48.874;9.086;2023-01-25T16:29:20;45.47;;;16.87;;
289;SDS011;13193;48.874;9.086;2023-01-25T16:31:49;44.70;;;19.00;;
289;SDS011;13193;48.874;9.086;2023-01-25T16:34:15;46.40;;;16.70;;
289;SDS011;13193;48.874;9.086;2023-01-25T16:36:41;60.60;;;24.40;;
289;SDS011;13193;48.874;9.086;2023-01-25T16:39:14;57.47;;;23.40;;
289;SDS011;13193;48.874;9.086;2023-01-25T16:41:43;45.67;;;21.17;;
289;SDS011;13193;48.874;9.086;2023-01-25T16:44:09;36.77;;;16.33;;
289;SDS011;13193;48.874;9.086;2023-01-25T16:46:34;56.23;;;22.70;;
289;SDS011;13193;48.874;9.086;2023-01-25T16:49:01;40.70;;;17.60;;
289;SDS011;13193;48.874;9.086;2023-01-25T16:51:32;39.13;;;19.80;;
289;SDS011;13193;48.874;9.086;2023-01-25T16:54:00;64.43;;;31.10;;
289;SDS011;13193;48.874;9.086;2023-01-25T16:56:30;55.30;;;25.23;;
289;SDS011;13193;48.874;9.086;2023-01-25T16:58:59;42.00;;;18.03;;
289;SDS011;13193;48.874;9.086;2023-01-25T17:01:26;53.23;;;22.93;;
289;SDS011;13193;48.874;9.086;2023-01-25T17:03:53;53.97;;;19.33;;
289;SDS011;13193;48.874;9.086;2023-01-25T17:08:47;47.00;;;22.50;;
289;SDS011;13193;48.874;9.086;2023-01-25T17:11:14;45.17;;;19.50;;
289;SDS011;13193;48.874;9.086;2023-01-25T17:13:52;41.60;;;18.60;;